KFXY

Forest City Municipal Airport

Forest City, Iowa, USA
METAR KFXY 212115Z AUTO 07010G16KT 7SM SCT009 SCT013 OVC026 17/16 A2985 RMK AO2
Observed Flight Rules
Jun-21 @ 21:15 UTC (51 minutes ago) Marginal Visual Flight Rules
Wind Visibility Clouds
70° at 10 knots
 Gusting to 16 knots
7 miles
  • Scattered at 900' AGL
  • Scattered at 1,300' AGL
  • Overcast at 2,600' AGL
Temperatures Readings
Current 17°C / 63°F
Dewpoint 16°C / 61°F
Humidity 94%
Altimeter 29.85" Hg
Pressure 1011 hPa
Elevation 375
METAR KFXY 212115Z AUTO 07010G16KT 7SM SCT009 SCT013 OVC026 17/16 A2985 RMK AO2
Observed Flight Rules
Jun-21 @ 21:15 UTC
(51 minutes ago)
MVFR
Wind Visibility
70° at 10 knots
 Gusting to 16 knots
7 miles
Clouds
  • Scattered at 900' AGL
  • Scattered at 1,300' AGL
  • Overcast at 2,600' AGL
Temperature Dewpoint
17°C / 63°F 16°C / 61°F
Humidity Altimeter Pressure
94% 29.85" Hg 1011 hPa